Terminal Aerodrome Forecast
Issued by NWS

Home | Current Version | Previous Version | Text Only | Print | Product List | Glossary On
Versions: 1 2 3 4 5 6 7 8 9 10 11 12 13 14 15 16
000
FTUS43 KILX 270800 AAA
TAFDEC
TAF AMD
KDEC 270832Z 2709/2806 21012KT 6SM -RA BR OVC007
     FM271800 23014KT P6SM VCSH OVC008
     FM272100 28014KT P6SM OVC012
     FM280100 30010KT P6SM SCT020 OVC120=

USA.gov is the U.S. government's official web portal to all federal, state and local government web resources and services.